Terminal Aerodrome Forecast
Issued by NWS

Home | Current Version | Previous Version | Text Only | Print | Product List | Glossary Off
Versions: 1 2 3 4 5 6 7 8 9 10 11 12 13 14

000
FTUS43 KBIS 011700
TAFDIK
TAF
KDIK 011736Z 0118/0218 29015KT P6SM VCSH OVC015
     FM012300 27011KT P6SM SCT020
     FM020300 18007KT P6SM SKC=

USA.gov is the U.S. government's official web portal to all federal, state and local government web resources and services.